createdAt,value
2023-01-19T00:05:07.565Z,9.73
2023-01-19T00:11:50.070Z,9.52
2023-01-19T00:18:32.683Z,8.82
2023-01-19T00:25:15.036Z,8.07
2023-01-19T00:31:57.294Z,8.05
2023-01-19T00:38:39.521Z,8.77
2023-01-19T00:45:23.995Z,8.63
2023-01-19T00:52:06.710Z,9.35
2023-01-19T00:58:49.030Z,8.82
2023-01-19T01:05:31.793Z,9.35
2023-01-19T01:12:14.221Z,9.77
2023-01-19T01:18:57.617Z,9.77
2023-01-19T01:25:40.244Z,9.27
2023-01-19T01:32:23.414Z,9.45
2023-01-19T01:39:06.163Z,9.52
2023-01-19T01:45:48.527Z,9.85
2023-01-19T01:52:33.715Z,9.13
2023-01-19T01:59:38.983Z,10.32
2023-01-19T02:06:22.219Z,9.27
2023-01-19T02:13:23.235Z,9.10
2023-01-19T02:20:06.181Z,8.35
2023-01-19T02:26:49.289Z,8.18
2023-01-19T02:33:31.828Z,7.75
2023-01-19T02:40:17.256Z,8.82
2023-01-19T02:46:59.738Z,8.98
2023-01-19T02:54:04.158Z,9.55
2023-01-19T03:01:13.542Z,8.60
2023-01-19T03:08:18.092Z,8.48
2023-01-19T03:15:09.715Z,8.85
2023-01-19T03:21:58.345Z,9.40
2023-01-19T03:28:44.177Z,9.70
2023-01-19T03:35:30.634Z,9.55
2023-01-19T03:42:15.750Z,9.20
2023-01-19T03:48:58.798Z,9.18
2023-01-19T03:55:44.710Z,9.23
2023-01-19T04:02:27.042Z,8.73
2023-01-19T04:09:09.436Z,9.63
2023-01-19T04:15:51.756Z,9.43
2023-01-19T04:22:34.307Z,9.75
2023-01-19T04:29:16.681Z,9.95
2023-01-19T04:35:59.027Z,9.50
2023-01-19T04:42:45.707Z,9.90
2023-01-19T04:49:28.028Z,10.27
2023-01-19T04:56:10.584Z,9.98
2023-01-19T05:02:53.480Z,10.30
2023-01-19T05:09:35.855Z,9.20
2023-01-19T05:16:18.421Z,10.23
2023-01-19T05:23:01.082Z,9.65
2023-01-19T05:29:44.547Z,9.68
2023-01-19T05:36:27.673Z,9.48
2023-01-19T05:43:10.217Z,9.40
2023-01-19T05:49:52.517Z,9.85
2023-01-19T05:56:35.865Z,9.60
2023-01-19T06:03:18.390Z,9.35
2023-01-19T06:10:00.752Z,9.10
2023-01-19T06:16:43.710Z,9.20
2023-01-19T06:23:27.215Z,10.05
2023-01-19T06:30:10.387Z,8.38
2023-01-19T06:36:52.652Z,9.13
2023-01-19T06:43:34.971Z,9.13
2023-01-19T06:50:17.491Z,8.43
2023-01-19T06:57:01.195Z,9.68
2023-01-19T07:03:46.801Z,7.93
2023-01-19T07:11:26.217Z,9.13
2023-01-19T07:17:31.589Z,8.77
2023-01-19T07:24:14.074Z,8.30
2023-01-19T07:30:57.304Z,8.20
2023-01-19T07:37:39.740Z,8.95
2023-01-19T07:44:22.097Z,8.70
2023-01-19T07:51:06.317Z,7.50
2023-01-19T07:57:52.425Z,8.23
2023-01-19T08:04:34.829Z,7.80
2023-01-19T08:11:17.228Z,7.40
2023-01-19T08:18:05.853Z,7.07
2023-01-19T08:24:50.282Z,6.47
2023-01-19T08:31:33.421Z,6.20
2023-01-19T08:38:17.044Z,6.25
2023-01-19T08:44:59.369Z,6.70
2023-01-19T08:51:41.914Z,6.47
2023-01-19T08:58:24.298Z,6.00
2023-01-19T09:05:07.192Z,5.88
2023-01-19T09:11:49.467Z,6.60
2023-01-19T09:18:32.007Z,6.30
2023-01-19T09:25:14.281Z,6.25
2023-01-19T09:31:57.633Z,6.13
2023-01-19T09:38:40.013Z,5.38
2023-01-19T09:45:48.378Z,5.22
2023-01-19T09:52:35.137Z,4.88
2023-01-19T09:59:22.226Z,5.93
2023-01-19T10:06:08.160Z,5.03
2023-01-19T10:13:28.918Z,5.00
2023-01-19T10:20:17.948Z,5.28
2023-01-19T10:27:00.735Z,4.50
2023-01-19T10:33:43.500Z,4.38
2023-01-19T10:40:36.207Z,5.47
2023-01-19T10:47:21.254Z,5.75
2023-01-19T10:54:04.692Z,5.82
2023-01-19T11:00:47.126Z,6.57
2023-01-19T11:07:35.590Z,5.20
2023-01-19T11:14:21.920Z,5.78
2023-01-19T11:21:16.303Z,5.60
2023-01-19T11:27:58.657Z,4.35
2023-01-19T11:34:41.189Z,4.53
2023-01-19T11:41:34.520Z,4.70
2023-01-19T11:48:30.091Z,4.25
2023-01-19T11:55:17.201Z,5.22
2023-01-19T12:02:04.328Z,4.43
2023-01-19T12:08:55.596Z,4.57
2023-01-19T12:15:42.912Z,4.57
2023-01-19T12:22:29.295Z,4.47
2023-01-19T12:29:14.087Z,4.63
2023-01-19T12:36:03.801Z,4.88
2023-01-19T12:42:50.530Z,4.30
2023-01-19T12:49:42.400Z,5.85
2023-01-19T12:56:31.300Z,3.83
2023-01-19T13:03:16.335Z,3.83
2023-01-19T13:09:58.851Z,4.57
2023-01-19T13:16:41.082Z,5.30
2023-01-19T13:23:54.264Z,5.65
2023-01-19T13:30:39.846Z,5.05
2023-01-19T13:37:26.205Z,5.05
2023-01-19T13:44:14.787Z,5.78
2023-01-19T13:51:16.918Z,5.00
2023-01-19T13:57:59.350Z,5.40
2023-01-19T14:04:42.248Z,5.28
2023-01-19T14:11:24.720Z,5.90
2023-01-19T14:18:19.040Z,6.35
2023-01-19T14:25:30.513Z,5.63
2023-01-19T14:32:13.792Z,5.35
2023-01-19T14:38:59.245Z,5.68
2023-01-19T14:45:47.322Z,6.70
2023-01-19T14:52:40.935Z,5.75
2023-01-19T14:59:23.273Z,7.80
2023-01-19T15:06:05.770Z,5.57
2023-01-19T15:12:49.760Z,6.78
2023-01-19T15:19:32.137Z,7.45
2023-01-19T15:26:17.625Z,6.15
2023-01-19T15:33:00.005Z,6.07
2023-01-19T15:39:43.295Z,6.53
2023-01-19T15:46:26.390Z,5.35
2023-01-19T15:53:14.694Z,6.10
2023-01-19T15:59:56.982Z,5.95
2023-01-19T16:06:39.582Z,7.10
2023-01-19T16:13:22.207Z,7.18
2023-01-19T16:20:05.510Z,6.85
2023-01-19T16:26:47.809Z,7.15
2023-01-19T16:33:30.235Z,7.90
2023-01-19T16:40:13.137Z,6.93
2023-01-19T16:46:55.652Z,7.13
2023-01-19T16:53:38.703Z,7.95
2023-01-19T17:00:21.340Z,7.05
2023-01-19T17:07:03.662Z,8.02
2023-01-19T17:13:47.233Z,9.88
2023-01-19T17:20:29.538Z,8.63
2023-01-19T17:27:11.944Z,16.52
2023-01-19T17:33:54.318Z,10.23
2023-01-19T17:40:37.780Z,8.85
2023-01-19T17:47:25.325Z,8.68
2023-01-19T17:54:07.965Z,10.55
2023-01-19T18:00:50.493Z,8.82
2023-01-19T18:07:32.854Z,7.80
2023-01-19T18:14:15.502Z,9.60
2023-01-19T18:20:59.551Z,10.00
2023-01-19T18:27:41.888Z,8.65
2023-01-19T18:34:24.170Z,10.20
2023-01-19T18:41:18.176Z,11.60
2023-01-19T18:48:02.235Z,10.05
2023-01-19T18:54:44.582Z,11.18
2023-01-19T19:01:32.505Z,17.38
2023-01-19T19:08:15.238Z,16.30
2023-01-19T19:14:57.839Z,12.00
2023-01-19T19:21:40.137Z,11.73
2023-01-19T19:28:22.450Z,14.93
2023-01-19T19:35:05.195Z,11.55
2023-01-19T19:41:47.470Z,11.70
2023-01-19T19:48:30.336Z,12.07
2023-01-19T19:55:12.855Z,12.00
2023-01-19T20:01:55.299Z,11.55
2023-01-19T20:08:37.693Z,12.23
2023-01-19T20:15:20.051Z,11.60
2023-01-19T20:22:02.375Z,12.32
2023-01-19T20:28:44.689Z,11.27
2023-01-19T20:35:26.982Z,11.48
2023-01-19T20:42:11.480Z,11.93
2023-01-19T20:48:54.688Z,11.63
2023-01-19T20:55:37.465Z,11.23
2023-01-19T21:02:20.348Z,11.95
2023-01-19T21:09:02.801Z,12.85
2023-01-19T21:15:45.255Z,12.30
2023-01-19T21:22:27.591Z,12.35
2023-01-19T21:29:13.224Z,13.65
2023-01-19T21:35:57.861Z,12.40
2023-01-19T21:42:40.516Z,13.05
2023-01-19T21:49:22.923Z,10.23
2023-01-19T21:56:10.557Z,10.57
2023-01-19T22:03:03.450Z,10.40
2023-01-19T22:09:48.092Z,9.82
2023-01-19T22:16:31.143Z,13.18
2023-01-19T22:23:13.462Z,10.35
2023-01-19T22:29:55.784Z,10.77
2023-01-19T22:36:38.358Z,11.93
2023-01-19T22:43:20.894Z,11.65
2023-01-19T22:50:03.252Z,11.60
2023-01-19T22:56:45.973Z,11.85
2023-01-19T23:03:29.365Z,12.70
2023-01-19T23:10:11.898Z,12.13
2023-01-19T23:16:54.214Z,17.25
2023-01-19T23:23:36.853Z,12.77
2023-01-19T23:30:19.500Z,12.88
2023-01-19T23:37:01.864Z,11.85
2023-01-19T23:43:45.037Z,11.68
2023-01-19T23:50:27.473Z,11.25
2023-01-19T23:57:09.947Z,11.73
